sensor_id;sensor_type;location;lat;lon;timestamp;pressure;altitude;pressure_sealevel;temperature;humidity
54994;BME280;40891;47.242;8.648;2023-09-12T00:01:19;96009.72;;;21.65;79.10
54994;BME280;40891;47.242;8.648;2023-09-12T00:03:44;96002.53;;;21.64;78.91
54994;BME280;40891;47.242;8.648;2023-09-12T00:06:09;96004.81;;;21.66;79.25
54994;BME280;40891;47.242;8.648;2023-09-12T00:08:35;96000.38;;;21.70;79.34
54994;BME280;40891;47.242;8.648;2023-09-12T00:11:08;96005.75;;;21.74;79.48
54994;BME280;40891;47.242;8.648;2023-09-12T00:13:40;95998.31;;;21.71;79.91
54994;BME280;40891;47.242;8.648;2023-09-12T00:16:06;95998.09;;;21.69;80.29
54994;BME280;40891;47.242;8.648;2023-09-12T00:18:35;96008.19;;;21.64;80.37
54994;BME280;40891;47.242;8.648;2023-09-12T00:21:00;95994.28;;;21.66;80.34
54994;BME280;40891;47.242;8.648;2023-09-12T00:23:26;95996.09;;;21.64;80.28
54994;BME280;40891;47.242;8.648;2023-09-12T00:25:52;95991.84;;;21.57;80.60
54994;BME280;40891;47.242;8.648;2023-09-12T00:28:18;95987.22;;;21.54;81.19
54994;BME280;40891;47.242;8.648;2023-09-12T00:30:43;95996.88;;;21.46;81.32
54994;BME280;40891;47.242;8.648;2023-09-12T00:33:08;95995.19;;;21.37;82.33
54994;BME280;40891;47.242;8.648;2023-09-12T00:35:34;95998.84;;;21.32;83.01
54994;BME280;40891;47.242;8.648;2023-09-12T00:37:59;95998.09;;;21.32;82.92
54994;BME280;40891;47.242;8.648;2023-09-12T00:40:25;95996.00;;;21.32;83.53
54994;BME280;40891;47.242;8.648;2023-09-12T00:42:50;96007.09;;;21.30;83.68
54994;BME280;40891;47.242;8.648;2023-09-12T00:45:16;96001.38;;;21.36;83.79
54994;BME280;40891;47.242;8.648;2023-09-12T00:47:41;96000.38;;;21.33;84.17
54994;BME280;40891;47.242;8.648;2023-09-12T00:50:07;95999.31;;;21.36;84.34
54994;BME280;40891;47.242;8.648;2023-09-12T00:52:34;96003.75;;;21.32;84.21
54994;BME280;40891;47.242;8.648;2023-09-12T00:55:01;96006.41;;;21.24;84.69
54994;BME280;40891;47.242;8.648;2023-09-12T00:57:28;96003.59;;;21.24;84.10
54994;BME280;40891;47.242;8.648;2023-09-12T00:59:55;96003.66;;;21.19;84.57
54994;BME280;40891;47.242;8.648;2023-09-12T01:02:22;96003.41;;;21.17;83.94
54994;BME280;40891;47.242;8.648;2023-09-12T01:04:48;96008.53;;;21.18;84.69
54994;BME280;40891;47.242;8.648;2023-09-12T01:07:13;96011.59;;;21.20;84.59
54994;BME280;40891;47.242;8.648;2023-09-12T01:09:40;96012.66;;;21.17;84.40
54994;BME280;40891;47.242;8.648;2023-09-12T01:12:06;96003.66;;;21.19;83.80
54994;BME280;40891;47.242;8.648;2023-09-12T01:14:31;96010.34;;;21.16;83.89
54994;BME280;40891;47.242;8.648;2023-09-12T01:16:57;96009.63;;;21.15;83.21
54994;BME280;40891;47.242;8.648;2023-09-12T01:19:23;96018.16;;;21.10;83.32
54994;BME280;40891;47.242;8.648;2023-09-12T01:22:11;96015.13;;;21.02;83.89
54994;BME280;40891;47.242;8.648;2023-09-12T01:24:58;96013.94;;;20.92;85.09
54994;BME280;40891;47.242;8.648;2023-09-12T01:27:41;96019.13;;;20.88;85.31
54994;BME280;40891;47.242;8.648;2023-09-12T01:30:08;96016.03;;;20.91;85.19
54994;BME280;40891;47.242;8.648;2023-09-12T01:32:35;96022.41;;;20.92;85.43
54994;BME280;40891;47.242;8.648;2023-09-12T01:35:01;96016.75;;;20.92;85.57
54994;BME280;40891;47.242;8.648;2023-09-12T01:37:29;96018.84;;;20.91;86.24
54994;BME280;40891;47.242;8.648;2023-09-12T01:39:55;96022.19;;;20.90;86.51
54994;BME280;40891;47.242;8.648;2023-09-12T01:42:21;96024.09;;;20.82;87.04
54994;BME280;40891;47.242;8.648;2023-09-12T01:44:49;96031.25;;;20.83;87.63
54994;BME280;40891;47.242;8.648;2023-09-12T01:47:16;96033.09;;;20.80;88.00
54994;BME280;40891;47.242;8.648;2023-09-12T01:49:45;96028.19;;;20.81;87.89
54994;BME280;40891;47.242;8.648;2023-09-12T01:52:13;96028.78;;;20.74;88.01
54994;BME280;40891;47.242;8.648;2023-09-12T01:54:40;96033.47;;;20.66;88.17
54994;BME280;40891;47.242;8.648;2023-09-12T01:57:06;96036.25;;;20.71;87.85
54994;BME280;40891;47.242;8.648;2023-09-12T01:59:33;96028.78;;;20.74;86.69
54994;BME280;40891;47.242;8.648;2023-09-12T02:01:58;96031.06;;;20.75;86.94
54994;BME280;40891;47.242;8.648;2023-09-12T02:04:24;96027.75;;;20.77;86.35
54994;BME280;40891;47.242;8.648;2023-09-12T02:06:49;96034.44;;;20.74;86.68
54994;BME280;40891;47.242;8.648;2023-09-12T02:09:14;96035.50;;;20.71;87.30
54994;BME280;40891;47.242;8.648;2023-09-12T02:11:40;96035.13;;;20.56;88.25
54994;BME280;40891;47.242;8.648;2023-09-12T02:14:05;96037.22;;;20.50;88.13
54994;BME280;40891;47.242;8.648;2023-09-12T02:16:31;96041.84;;;20.53;88.13
54994;BME280;40891;47.242;8.648;2023-09-12T02:18:56;96038.44;;;20.60;87.89
54994;BME280;40891;47.242;8.648;2023-09-12T02:21:22;96037.19;;;20.55;88.58
54994;BME280;40891;47.242;8.648;2023-09-12T02:23:47;96031.22;;;20.59;88.09
54994;BME280;40891;47.242;8.648;2023-09-12T02:26:12;96033.34;;;20.53;88.62
54994;BME280;40891;47.242;8.648;2023-09-12T02:28:37;96029.53;;;20.50;88.38
54994;BME280;40891;47.242;8.648;2023-09-12T02:31:03;96029.75;;;20.52;88.80
54994;BME280;40891;47.242;8.648;2023-09-12T02:33:28;96032.13;;;20.48;89.24
54994;BME280;40891;47.242;8.648;2023-09-12T02:35:53;96034.03;;;20.34;90.49
54994;BME280;40891;47.242;8.648;2023-09-12T02:38:19;96035.78;;;20.38;91.34
54994;BME280;40891;47.242;8.648;2023-09-12T02:40:44;96030.41;;;20.40;91.50
54994;BME280;40891;47.242;8.648;2023-09-12T02:43:10;96019.59;;;20.44;91.26
54994;BME280;40891;47.242;8.648;2023-09-12T02:45:35;96027.75;;;20.47;91.12
54994;BME280;40891;47.242;8.648;2023-09-12T02:48:00;96027.00;;;20.47;91.44
54994;BME280;40891;47.242;8.648;2023-09-12T02:50:26;96024.22;;;20.41;92.43
54994;BME280;40891;47.242;8.648;2023-09-12T02:52:51;96027.09;;;20.35;93.22
54994;BME280;40891;47.242;8.648;2023-09-12T02:55:16;96027.91;;;20.30;93.79
54994;BME280;40891;47.242;8.648;2023-09-12T02:57:42;96031.72;;;20.33;93.67
54994;BME280;40891;47.242;8.648;2023-09-12T03:00:07;96028.91;;;20.33;94.32
54994;BME280;40891;47.242;8.648;2023-09-12T03:02:34;96028.91;;;20.33;93.74
54994;BME280;40891;47.242;8.648;2023-09-12T03:04:59;96028.44;;;20.29;94.06
54994;BME280;40891;47.242;8.648;2023-09-12T03:07:26;96029.50;;;20.20;94.46
54994;BME280;40891;47.242;8.648;2023-09-12T03:09:51;96029.78;;;20.22;94.32
54994;BME280;40891;47.242;8.648;2023-09-12T03:12:17;96028.50;;;20.18;94.65
54994;BME280;40891;47.242;8.648;2023-09-12T03:14:42;96025.13;;;20.19;94.87
54994;BME280;40891;47.242;8.648;2023-09-12T03:17:08;96025.94;;;20.14;95.65
54994;BME280;40891;47.242;8.648;2023-09-12T03:19:33;96027.25;;;20.13;95.73
54994;BME280;40891;47.242;8.648;2023-09-12T03:21:58;96026.47;;;20.13;95.95
54994;BME280;40891;47.242;8.648;2023-09-12T03:24:24;96011.84;;;20.14;96.24
54994;BME280;40891;47.242;8.648;2023-09-12T03:26:50;96022.19;;;20.06;97.07
54994;BME280;40891;47.242;8.648;2023-09-12T03:29:16;96025.25;;;20.08;97.63
54994;BME280;40891;47.242;8.648;2023-09-12T03:31:41;96019.81;;;20.10;98.08
54994;BME280;40891;47.242;8.648;2023-09-12T03:34:07;96023.69;;;20.07;98.83
54994;BME280;40891;47.242;8.648;2023-09-12T03:36:32;96020.63;;;20.05;99.04
54994;BME280;40891;47.242;8.648;2023-09-12T03:38:57;96028.06;;;20.08;98.80
54994;BME280;40891;47.242;8.648;2023-09-12T03:41:23;96023.22;;;20.03;99.25
54994;BME280;40891;47.242;8.648;2023-09-12T03:43:52;96020.88;;;20.07;98.82
54994;BME280;40891;47.242;8.648;2023-09-12T03:46:18;96024.47;;;20.08;99.24
54994;BME280;40891;47.242;8.648;2023-09-12T03:48:43;96014.66;;;20.14;98.65
54994;BME280;40891;47.242;8.648;2023-09-12T03:51:09;96021.31;;;20.17;99.17
54994;BME280;40891;47.242;8.648;2023-09-12T03:53:34;96017.44;;;20.20;99.11
54994;BME280;40891;47.242;8.648;2023-09-12T03:55:59;96026.94;;;20.22;98.69
54994;BME280;40891;47.242;8.648;2023-09-12T03:58:25;96021.00;;;20.26;98.86
54994;BME280;40891;47.242;8.648;2023-09-12T04:00:50;96021.25;;;20.28;98.63
54994;BME280;40891;47.242;8.648;2023-09-12T04:03:15;96021.00;;;20.26;98.02
54994;BME280;40891;47.242;8.648;2023-09-12T04:05:41;96012.75;;;20.28;97.36
54994;BME280;40891;47.242;8.648;2023-09-12T04:08:07;96019.16;;;20.34;96.04
54994;BME280;40891;47.242;8.648;2023-09-12T04:10:32;96021.16;;;20.39;95.46
54994;BME280;40891;47.242;8.648;2023-09-12T04:12:57;96024.50;;;20.38;96.23
54994;BME280;40891;47.242;8.648;2023-09-12T04:15:23;96018.72;;;20.24;96.96
54994;BME280;40891;47.242;8.648;2023-09-12T04:17:48;96022.13;;;20.12;97.81
54994;BME280;40891;47.242;8.648;2023-09-12T04:20:14;96024.69;;;20.10;97.85
54994;BME280;40891;47.242;8.648;2023-09-12T04:22:40;96022.22;;;20.01;98.70
54994;BME280;40891;47.242;8.648;2023-09-12T04:25:06;96021.97;;;19.99;98.61
54994;BME280;40891;47.242;8.648;2023-09-12T04:27:31;96015.34;;;19.91;99.08
54994;BME280;40891;47.242;8.648;2023-09-12T04:29:56;96022.28;;;19.90;99.19
54994;BME280;40891;47.242;8.648;2023-09-12T04:32:22;96023.31;;;19.92;98.71
54994;BME280;40891;47.242;8.648;2023-09-12T04:34:51;96021.75;;;19.91;98.42
54994;BME280;40891;47.242;8.648;2023-09-12T04:37:17;96018.69;;;19.89;98.57
54994;BME280;40891;47.242;8.648;2023-09-12T04:39:42;96020.22;;;19.90;99.12
54994;BME280;40891;47.242;8.648;2023-09-12T04:42:07;96025.06;;;19.95;99.50
54994;BME280;40891;47.242;8.648;2023-09-12T04:44:39;96022.03;;;19.88;99.87
54994;BME280;40891;47.242;8.648;2023-09-12T04:47:05;96020.75;;;19.89;100.00
54994;BME280;40891;47.242;8.648;2023-09-12T04:49:30;96024.59;;;19.91;100.00
54994;BME280;40891;47.242;8.648;2023-09-12T04:51:55;96021.78;;;19.86;100.00
54994;BME280;40891;47.242;8.648;2023-09-12T04:54:21;96024.34;;;19.89;100.00
54994;BME280;40891;47.242;8.648;2023-09-12T04:56:46;96025.13;;;19.90;100.00
54994;BME280;40891;47.242;8.648;2023-09-12T04:59:12;96025.38;;;19.86;100.00
54994;BME280;40891;47.242;8.648;2023-09-12T05:01:49;96030.75;;;19.90;100.00
54994;BME280;40891;47.242;8.648;2023-09-12T05:04:16;96028.94;;;19.92;100.00
54994;BME280;40891;47.242;8.648;2023-09-12T05:06:55;96038.59;;;20.02;100.00
54994;BME280;40891;47.242;8.648;2023-09-12T05:09:20;96031.47;;;19.96;100.00
54994;BME280;40891;47.242;8.648;2023-09-12T05:11:45;96037.16;;;19.90;100.00
54994;BME280;40891;47.242;8.648;2023-09-12T05:14:11;96042.56;;;19.88;100.00
54994;BME280;40891;47.242;8.648;2023-09-12T05:16:36;96029.00;;;19.81;100.00
54994;BME280;40891;47.242;8.648;2023-09-12T05:19:02;96037.72;;;19.83;100.00
54994;BME280;40891;47.242;8.648;2023-09-12T05:21:27;96038.97;;;19.88;100.00
54994;BME280;40891;47.242;8.648;2023-09-12T05:23:52;96039.41;;;19.97;100.00
54994;BME280;40891;47.242;8.648;2023-09-12T05:26:18;96040.38;;;20.05;98.75
54994;BME280;40891;47.242;8.648;2023-09-12T05:28:43;96041.88;;;20.12;98.34
54994;BME280;40891;47.242;8.648;2023-09-12T05:31:12;96040.78;;;20.26;97.03
54994;BME280;40891;47.242;8.648;2023-09-12T05:33:41;96038.88;;;20.40;95.99
54994;BME280;40891;47.242;8.648;2023-09-12T05:36:21;96033.13;;;20.51;96.22
54994;BME280;40891;47.242;8.648;2023-09-12T05:38:46;96036.88;;;20.59;95.31
54994;BME280;40891;47.242;8.648;2023-09-12T05:41:11;96040.97;;;20.63;94.46
54994;BME280;40891;47.242;8.648;2023-09-12T05:43:37;96044.75;;;20.71;94.07
54994;BME280;40891;47.242;8.648;2023-09-12T05:46:02;96050.34;;;20.77;94.95
54994;BME280;40891;47.242;8.648;2023-09-12T05:48:28;96052.22;;;20.93;95.69
54994;BME280;40891;47.242;8.648;2023-09-12T05:50:53;96049.34;;;20.98;95.15
54994;BME280;40891;47.242;8.648;2023-09-12T05:53:18;96045.19;;;21.05;95.44
54994;BME280;40891;47.242;8.648;2023-09-12T05:55:44;96051.09;;;21.07;94.46
54994;BME280;40891;47.242;8.648;2023-09-12T05:58:10;96048.66;;;21.17;95.59
54994;BME280;40891;47.242;8.648;2023-09-12T06:00:35;96044.19;;;21.27;95.89
54994;BME280;40891;47.242;8.648;2023-09-12T06:03:00;96050.25;;;21.36;96.10
54994;BME280;40891;47.242;8.648;2023-09-12T06:05:26;96047.03;;;21.45;95.56
54994;BME280;40891;47.242;8.648;2023-09-12T06:07:51;96049.16;;;21.58;95.79
54994;BME280;40891;47.242;8.648;2023-09-12T06:10:16;96051.31;;;21.70;94.53
54994;BME280;40891;47.242;8.648;2023-09-12T06:12:41;96052.19;;;21.84;92.65
54994;BME280;40891;47.242;8.648;2023-09-12T06:15:07;96055.41;;;21.94;91.40
54994;BME280;40891;47.242;8.648;2023-09-12T06:17:33;96059.22;;;21.96;91.25
54994;BME280;40891;47.242;8.648;2023-09-12T06:19:58;96060.78;;;21.97;90.65
54994;BME280;40891;47.242;8.648;2023-09-12T06:22:23;96067.44;;;22.00;90.42
54994;BME280;40891;47.242;8.648;2023-09-12T06:24:50;96051.66;;;22.04;90.54
54994;BME280;40891;47.242;8.648;2023-09-12T06:27:15;96054.41;;;22.10;90.53
54994;BME280;40891;47.242;8.648;2023-09-12T06:29:48;96053.78;;;22.17;90.96
54994;BME280;40891;47.242;8.648;2023-09-12T06:32:15;96055.66;;;22.27;90.02
54994;BME280;40891;47.242;8.648;2023-09-12T06:34:41;96056.59;;;22.35;88.58
54994;BME280;40891;47.242;8.648;2023-09-12T06:37:06;96052.13;;;22.40;87.75
54994;BME280;40891;47.242;8.648;2023-09-12T06:39:32;96052.50;;;22.50;88.34
54994;BME280;40891;47.242;8.648;2023-09-12T06:41:57;96050.91;;;22.67;88.66
54994;BME280;40891;47.242;8.648;2023-09-12T06:44:23;96048.31;;;22.69;87.41
54994;BME280;40891;47.242;8.648;2023-09-12T06:46:48;96044.59;;;22.74;86.54
54994;BME280;40891;47.242;8.648;2023-09-12T06:49:13;96046.06;;;22.81;85.45
54994;BME280;40891;47.242;8.648;2023-09-12T06:51:38;96046.94;;;22.89;86.29
54994;BME280;40891;47.242;8.648;2023-09-12T06:54:04;96053.16;;;22.87;87.34
54994;BME280;40891;47.242;8.648;2023-09-12T06:56:29;96042.88;;;22.84;89.82
54994;BME280;40891;47.242;8.648;2023-09-12T06:58:54;96055.78;;;22.85;89.83
54994;BME280;40891;47.242;8.648;2023-09-12T07:01:20;96038.09;;;23.06;88.10
54994;BME280;40891;47.242;8.648;2023-09-12T07:03:45;96044.47;;;23.12;85.66
54994;BME280;40891;47.242;8.648;2023-09-12T07:06:11;96050.75;;;23.31;84.35
54994;BME280;40891;47.242;8.648;2023-09-12T07:08:37;96050.75;;;23.31;84.51
54994;BME280;40891;47.242;8.648;2023-09-12T07:11:04;96053.06;;;23.32;84.51
54994;BME280;40891;47.242;8.648;2023-09-12T07:13:32;96054.72;;;23.41;83.88
54994;BME280;40891;47.242;8.648;2023-09-12T07:15:57;96056.59;;;23.51;83.41
54994;BME280;40891;47.242;8.648;2023-09-12T07:18:23;96065.50;;;23.68;82.79
54994;BME280;40891;47.242;8.648;2023-09-12T07:21:00;96052.06;;;23.69;81.21
54994;BME280;40891;47.242;8.648;2023-09-12T07:23:25;96061.25;;;23.75;82.55
54994;BME280;40891;47.242;8.648;2023-09-12T07:25:51;96058.78;;;23.92;80.90
54994;BME280;40891;47.242;8.648;2023-09-12T07:28:17;96061.41;;;24.03;80.81
54994;BME280;40891;47.242;8.648;2023-09-12T07:30:45;96061.06;;;24.20;79.42
54994;BME280;40891;47.242;8.648;2023-09-12T07:33:11;96053.72;;;24.24;78.36
54994;BME280;40891;47.242;8.648;2023-09-12T07:35:36;96060.91;;;24.25;78.40
54994;BME280;40891;47.242;8.648;2023-09-12T07:38:01;96059.28;;;24.30;78.18
54994;BME280;40891;47.242;8.648;2023-09-12T07:40:27;96062.25;;;24.45;77.07
54994;BME280;40891;47.242;8.648;2023-09-12T07:42:54;96061.34;;;24.50;77.21
54994;BME280;40891;47.242;8.648;2023-09-12T07:45:19;96062.53;;;24.55;77.40
54994;BME280;40891;47.242;8.648;2023-09-12T07:47:45;96063.38;;;24.63;78.16
54994;BME280;40891;47.242;8.648;2023-09-12T07:50:10;96069.41;;;24.80;76.67
54994;BME280;40891;47.242;8.648;2023-09-12T07:52:36;96067.72;;;24.77;76.41
54994;BME280;40891;47.242;8.648;2023-09-12T07:55:02;96061.59;;;24.93;76.67
54994;BME280;40891;47.242;8.648;2023-09-12T07:57:28;96062.75;;;24.98;77.47
54994;BME280;40891;47.242;8.648;2023-09-12T07:59:54;96072.94;;;25.14;75.02
54994;BME280;40891;47.242;8.648;2023-09-12T08:02:19;96072.72;;;25.12;74.22
54994;BME280;40891;47.242;8.648;2023-09-12T08:04:44;96077.47;;;25.10;73.76
54994;BME280;40891;47.242;8.648;2023-09-12T08:07:10;96075.84;;;25.01;75.35
54994;BME280;40891;47.242;8.648;2023-09-12T08:09:58;96075.19;;;25.08;74.30
54994;BME280;40891;47.242;8.648;2023-09-12T08:12:24;96071.41;;;25.13;74.02
54994;BME280;40891;47.242;8.648;2023-09-12T08:14:51;96069.53;;;25.16;75.47
54994;BME280;40891;47.242;8.648;2023-09-12T08:17:16;96077.91;;;25.21;73.29
54994;BME280;40891;47.242;8.648;2023-09-12T08:19:42;96078.03;;;25.36;72.82
54994;BME280;40891;47.242;8.648;2023-09-12T08:22:09;96074.25;;;25.41;73.68
54994;BME280;40891;47.242;8.648;2023-09-12T08:24:35;96070.72;;;25.48;72.22
54994;BME280;40891;47.242;8.648;2023-09-12T08:27:01;96070.81;;;25.63;69.26
54994;BME280;40891;47.242;8.648;2023-09-12T08:29:28;96061.78;;;25.80;66.70
54994;BME280;40891;47.242;8.648;2023-09-12T08:31:53;96062.69;;;26.11;68.81
54994;BME280;40891;47.242;8.648;2023-09-12T08:34:20;96062.97;;;26.43;66.93
54994;BME280;40891;47.242;8.648;2023-09-12T08:36:45;96065.28;;;26.67;65.24
54994;BME280;40891;47.242;8.648;2023-09-12T08:39:14;96050.88;;;26.95;63.91
54994;BME280;40891;47.242;8.648;2023-09-12T08:41:41;96047.06;;;27.08;62.01
54994;BME280;40891;47.242;8.648;2023-09-12T08:44:07;96060.78;;;27.25;62.19
54994;BME280;40891;47.242;8.648;2023-09-12T08:46:33;96058.63;;;27.63;59.30
54994;BME280;40891;47.242;8.648;2023-09-12T08:48:59;96052.69;;;27.76;59.52
54994;BME280;40891;47.242;8.648;2023-09-12T08:51:25;96056.63;;;27.96;57.08
54994;BME280;40891;47.242;8.648;2023-09-12T08:53:51;96054.84;;;28.15;56.97
54994;BME280;40891;47.242;8.648;2023-09-12T08:56:20;96051.09;;;28.38;54.16
54994;BME280;40891;47.242;8.648;2023-09-12T08:58:45;96041.59;;;28.67;54.36
54994;BME280;40891;47.242;8.648;2023-09-12T09:01:13;96045.66;;;28.89;53.42
54994;BME280;40891;47.242;8.648;2023-09-12T09:03:42;96043.50;;;29.14;52.63
54994;BME280;40891;47.242;8.648;2023-09-12T09:06:10;96043.50;;;29.39;51.51
54994;BME280;40891;47.242;8.648;2023-09-12T09:08:36;96042.88;;;29.82;49.20
54994;BME280;40891;47.242;8.648;2023-09-12T09:11:02;96039.06;;;29.80;48.43
54994;BME280;40891;47.242;8.648;2023-09-12T09:13:28;96045.47;;;30.05;48.71
54994;BME280;40891;47.242;8.648;2023-09-12T09:16:14;96039.97;;;30.16;48.55
54994;BME280;40891;47.242;8.648;2023-09-12T09:21:33;96037.78;;;29.56;49.91
54994;BME280;40891;47.242;8.648;2023-09-12T09:24:04;96036.22;;;28.96;51.84
54994;BME280;40891;47.242;8.648;2023-09-12T09:29:13;96030.84;;;30.10;50.32
54994;BME280;40891;47.242;8.648;2023-09-12T09:31:46;96035.44;;;30.93;49.10
54994;BME280;40891;47.242;8.648;2023-09-12T09:34:13;96037.56;;;31.39;46.43
54994;BME280;40891;47.242;8.648;2023-09-12T09:36:50;96033.53;;;32.38;43.55
54994;BME280;40891;47.242;8.648;2023-09-12T09:39:20;96027.88;;;33.39;40.86
54994;BME280;40891;47.242;8.648;2023-09-12T09:41:50;96019.75;;;34.88;38.09
54994;BME280;40891;47.242;8.648;2023-09-12T09:44:16;96022.66;;;36.43;33.77
54994;BME280;40891;47.242;8.648;2023-09-12T09:46:46;96022.41;;;37.69;32.75
54994;BME280;40891;47.242;8.648;2023-09-12T09:49:15;96018.94;;;39.03;30.17
54994;BME280;40891;47.242;8.648;2023-09-12T09:51:41;96014.47;;;39.31;28.09
54994;BME280;40891;47.242;8.648;2023-09-12T09:54:08;96017.56;;;39.19;28.66
54994;BME280;40891;47.242;8.648;2023-09-12T09:56:45;96006.09;;;40.03;28.80
54994;BME280;40891;47.242;8.648;2023-09-12T09:59:13;96007.72;;;40.59;28.15
54994;BME280;40891;47.242;8.648;2023-09-12T10:01:40;96011.31;;;41.50;26.15
54994;BME280;40891;47.242;8.648;2023-09-12T10:04:06;96004.69;;;41.30;26.30
54994;BME280;40891;47.242;8.648;2023-09-12T10:06:35;96011.47;;;42.15;25.23
54994;BME280;40891;47.242;8.648;2023-09-12T10:09:06;96006.47;;;41.98;25.69
54994;BME280;40891;47.242;8.648;2023-09-12T10:11:32;95998.63;;;42.24;24.87
54994;BME280;40891;47.242;8.648;2023-09-12T10:14:03;96000.34;;;41.51;27.06
54994;BME280;40891;47.242;8.648;2023-09-12T10:16:33;95994.16;;;41.41;27.14
54994;BME280;40891;47.242;8.648;2023-09-12T10:19:07;96006.06;;;40.72;28.35
54994;BME280;40891;47.242;8.648;2023-09-12T10:21:35;95993.94;;;40.97;26.59
54994;BME280;40891;47.242;8.648;2023-09-12T10:24:03;95991.72;;;40.60;27.47
54994;BME280;40891;47.242;8.648;2023-09-12T10:26:31;95994.25;;;41.05;27.00
54994;BME280;40891;47.242;8.648;2023-09-12T10:28:57;95992.16;;;40.53;28.29
54994;BME280;40891;47.242;8.648;2023-09-12T10:31:24;95989.38;;;40.74;26.16
54994;BME280;40891;47.242;8.648;2023-09-12T10:33:50;95992.75;;;39.03;27.97
54994;BME280;40891;47.242;8.648;2023-09-12T10:36:17;95994.31;;;36.66;33.37
54994;BME280;40891;47.242;8.648;2023-09-12T10:38:44;95995.88;;;35.34;38.72
54994;BME280;40891;47.242;8.648;2023-09-12T10:41:14;95994.81;;;35.76;38.16
54994;BME280;40891;47.242;8.648;2023-09-12T10:43:40;95988.00;;;37.49;35.17
54994;BME280;40891;47.242;8.648;2023-09-12T10:46:07;95977.50;;;39.82;29.35
54994;BME280;40891;47.242;8.648;2023-09-12T10:48:34;95972.47;;;42.28;26.16
54994;BME280;40891;47.242;8.648;2023-09-12T10:51:00;95969.44;;;42.69;24.31
54994;BME280;40891;47.242;8.648;2023-09-12T10:53:27;95969.38;;;43.15;24.08
54994;BME280;40891;47.242;8.648;2023-09-12T10:56:15;95966.50;;;43.17;23.39
54994;BME280;40891;47.242;8.648;2023-09-12T11:01:30;95958.47;;;43.94;21.82
54994;BME280;40891;47.242;8.648;2023-09-12T11:03:56;95951.94;;;43.68;21.88
54994;BME280;40891;47.242;8.648;2023-09-12T11:06:27;95947.66;;;44.88;21.38
54994;BME280;40891;47.242;8.648;2023-09-12T11:11:42;95944.81;;;44.33;22.47
54994;BME280;40891;47.242;8.648;2023-09-12T11:14:09;95934.31;;;44.51;22.67
54994;BME280;40891;47.242;8.648;2023-09-12T11:16:34;95935.22;;;45.21;22.17
54994;BME280;40891;47.242;8.648;2023-09-12T11:21:45;95934.41;;;43.70;21.09
54994;BME280;40891;47.242;8.648;2023-09-12T11:24:11;95937.38;;;44.28;20.97
54994;BME280;40891;47.242;8.648;2023-09-12T11:26:56;95935.84;;;43.69;19.47
54994;BME280;40891;47.242;8.648;2023-09-12T11:31:55;95929.63;;;45.36;19.22
54994;BME280;40891;47.242;8.648;2023-09-12T11:34:25;95928.56;;;44.87;20.27
54994;BME280;40891;47.242;8.648;2023-09-12T11:36:55;95925.53;;;46.30;19.56
54994;BME280;40891;47.242;8.648;2023-09-12T11:39:25;95921.69;;;45.44;19.74
54994;BME280;40891;47.242;8.648;2023-09-12T11:41:51;95921.09;;;46.29;19.27
54994;BME280;40891;47.242;8.648;2023-09-12T11:44:18;95921.53;;;46.55;19.28
54994;BME280;40891;47.242;8.648;2023-09-12T11:46:47;95928.69;;;46.42;19.40
54994;BME280;40891;47.242;8.648;2023-09-12T11:49:13;95907.06;;;47.88;20.07
54994;BME280;40891;47.242;8.648;2023-09-12T11:51:47;95910.16;;;47.36;18.28
54994;BME280;40891;47.242;8.648;2023-09-12T11:54:20;95910.56;;;47.10;18.49
54994;BME280;40891;47.242;8.648;2023-09-12T11:56:49;95906.66;;;46.45;19.45
54994;BME280;40891;47.242;8.648;2023-09-12T11:59:15;95905.31;;;47.62;20.10
54994;BME280;40891;47.242;8.648;2023-09-12T12:01:44;95906.25;;;48.59;18.58
54994;BME280;40891;47.242;8.648;2023-09-12T12:04:10;95906.91;;;47.73;19.29
54994;BME280;40891;47.242;8.648;2023-09-12T12:06:36;95899.34;;;46.98;18.61
54994;BME280;40891;47.242;8.648;2023-09-12T12:09:02;95908.28;;;46.54;19.29
54994;BME280;40891;47.242;8.648;2023-09-12T12:11:28;95893.94;;;48.03;17.98
54994;BME280;40891;47.242;8.648;2023-09-12T12:13:53;95895.59;;;46.92;19.52
54994;BME280;40891;47.242;8.648;2023-09-12T12:16:19;95896.50;;;45.69;20.15
54994;BME280;40891;47.242;8.648;2023-09-12T12:18:44;95898.38;;;45.18;21.35
54994;BME280;40891;47.242;8.648;2023-09-12T12:21:10;95888.91;;;46.39;21.72
54994;BME280;40891;47.242;8.648;2023-09-12T12:23:35;95883.13;;;47.55;21.15
54994;BME280;40891;47.242;8.648;2023-09-12T12:26:07;95876.75;;;46.63;21.03
54994;BME280;40891;47.242;8.648;2023-09-12T12:28:34;95876.13;;;46.23;18.88
54994;BME280;40891;47.242;8.648;2023-09-12T12:31:00;95879.84;;;43.59;22.31
54994;BME280;40891;47.242;8.648;2023-09-12T12:33:25;95871.13;;;43.89;23.19
54994;BME280;40891;47.242;8.648;2023-09-12T12:36:05;95878.63;;;44.87;22.16
54994;BME280;40891;47.242;8.648;2023-09-12T12:38:35;95877.03;;;45.52;21.77
54994;BME280;40891;47.242;8.648;2023-09-12T12:41:01;95879.56;;;43.23;23.85
54994;BME280;40891;47.242;8.648;2023-09-12T12:43:26;95891.56;;;41.30;27.64
54994;BME280;40891;47.242;8.648;2023-09-12T12:45:57;95890.03;;;39.47;29.50
54994;BME280;40891;47.242;8.648;2023-09-12T12:48:33;95896.06;;;37.97;32.38
54994;BME280;40891;47.242;8.648;2023-09-12T12:50:59;95904.91;;;35.60;35.17
54994;BME280;40891;47.242;8.648;2023-09-12T12:53:40;95905.00;;;34.44;37.42
54994;BME280;40891;47.242;8.648;2023-09-12T12:56:06;95893.91;;;33.52;40.27
54994;BME280;40891;47.242;8.648;2023-09-12T12:58:32;95905.50;;;33.00;41.09
54994;BME280;40891;47.242;8.648;2023-09-12T13:00:58;95902.97;;;32.64;42.67
54994;BME280;40891;47.242;8.648;2023-09-12T13:03:23;95910.97;;;32.35;44.50
54994;BME280;40891;47.242;8.648;2023-09-12T13:05:48;95924.50;;;32.13;44.24
54994;BME280;40891;47.242;8.648;2023-09-12T13:08:14;95938.19;;;31.55;44.00
54994;BME280;40891;47.242;8.648;2023-09-12T13:10:39;95954.44;;;31.05;42.92
54994;BME280;40891;47.242;8.648;2023-09-12T13:13:07;95962.06;;;30.73;44.76
54994;BME280;40891;47.242;8.648;2023-09-12T13:15:33;95970.81;;;30.75;44.72